Skye — WDG4178 — position and weather

sailwx.info

Track history (hours):
 
Tides and Currents Weather Stations Pressure Air Temp Water Temp Dewpoint Dewpoint Depression Visibility Wind Speed Wind Dir Waves Ship Positions

Skye

Owner: Worthington, Ralph, New York, NY. More information available from US FCC via Universal Licensing System and Coast Guard Vessel Documentation Center.

Last reported at 2015-Oct-07 18:33 UTC. Time now 2016-Feb-14 03:56 UTC.
Position N 35°54' E 014°33'.
Warning: this ship's position is months out of date.

Length 13 m.

Type: Sailing vessel. MMSI: 367533820.

Date/timePositionNaut miles runAvg speedWind from/ knotsBaromVisibWave heightAir tempDewpointWater temp
2015-Oct-07 18:33N 35°54' E 014°33'3 0.4
2015-Oct-07 12:26N 35°53' E 014°36'4 0.2
2015-Oct-06 17:03N 35°54' E 014°31'3 6.6
2015-Oct-06 16:33N 35°57' E 014°29'5 4.8
2015-Oct-06 15:33N 35°60' E 014°24'4 3.3
2015-Oct-06 14:25N 36°01' E 014°19'0 0.0
2015-Oct-06 13:31N 36°01' E 014°19'1 1.5
2015-Oct-06 12:33N 35°60' E 014°21'5 5.2
2015-Oct-06 11:33N 36°02' E 014°26'5 4.7
2015-Oct-06 10:32N 35°58' E 014°29'3 3.0
2015-Oct-06 09:28N 35°55' E 014°32'2 0.1
2015-Oct-05 00:33N 35°54' E 014°34'9 6.9
2015-Oct-04 23:19N 35°56' E 014°45'7 6.7
2015-Oct-04 22:13N 35°57' E 014°54'  
2015-Sep-30 11:21N 37°37' E 023°41'6 7.3
2015-Sep-30 10:32N 37°43' E 023°41'7 7.5
2015-Sep-30 09:32N 37°50' E 023°39'6 5.8
2015-Sep-30 08:33N 37°56' E 023°39'0 0.2
2015-Sep-30 07:31N 37°56' E 023°39'0 0.0
2015-Sep-30 06:31N 37°56' E 023°39'0 0.0
2015-Sep-30 05:31N 37°56' E 023°39'0 0.0
2015-Sep-30 04:25N 37°56' E 023°39'0 0.0
2015-Sep-30 03:31N 37°56' E 023°39'0 0.0
2015-Sep-30 02:31N 37°56' E 023°39'0 0.0
2015-Sep-30 01:13N 37°56' E 023°39'0 0.0
2015-Sep-30 00:31N 37°56' E 023°39'0 0.0
2015-Sep-29 23:22N 37°56' E 023°39'0 0.0
2015-Sep-29 22:31N 37°56' E 023°39'0 0.0
2015-Sep-29 21:19N 37°56' E 023°39'0 0.0
2015-Sep-29 20:31N 37°56' E 023°39'0 0.0
2015-Sep-29 19:31N 37°56' E 023°39'0 0.0
2015-Sep-29 18:31N 37°56' E 023°39'0 0.0
2015-Sep-29 16:28N 37°56' E 023°39'0 0.0
2015-Sep-29 15:31N 37°56' E 023°39'0 0.0
2015-Sep-29 14:16N 37°56' E 023°39'0 0.0
2015-Sep-29 13:22N 37°56' E 023°39'0 0.0
2015-Sep-29 12:22N 37°56' E 023°39'0 0.0
2015-Sep-29 11:31N 37°56' E 023°39'0 0.0
2015-Sep-29 10:31N 37°56' E 023°39'0 0.0
2015-Sep-29 09:31N 37°56' E 023°39'0 0.0
2015-Sep-29 08:31N 37°56' E 023°39'0 0.0
2015-Sep-29 07:31N 37°56' E 023°39'0 0.0
2015-Sep-29 06:31N 37°56' E 023°39'0 0.0
2015-Sep-29 05:31N 37°56' E 023°39'0 0.0
2015-Sep-29 04:25N 37°56' E 023°39'0 0.0
2015-Sep-29 03:32N 37°56' E 023°39'0 0.0
2015-Sep-29 02:31N 37°56' E 023°39'0 0.0
2015-Sep-29 01:31N 37°56' E 023°39'0 0.0
2015-Sep-29 00:32N 37°56' E 023°39'0 0.0
2015-Sep-28 23:32N 37°56' E 023°39'0 0.0
2015-Sep-28 22:32N 37°56' E 023°39'0 0.0
2015-Sep-28 21:32N 37°56' E 023°39'0 0.0
2015-Sep-28 20:32N 37°56' E 023°39'0 0.0
2015-Sep-28 19:32N 37°56' E 023°39'0 0.0
2015-Sep-28 18:26N 37°56' E 023°39'0 0.0
2015-Sep-28 17:32N 37°56' E 023°39'0 0.0
2015-Sep-28 16:32N 37°56' E 023°39'0 0.0
2015-Sep-28 15:32N 37°56' E 023°39'0 0.0
2015-Sep-28 14:32N 37°56' E 023°39'0 0.0
2015-Sep-28 13:32N 37°56' E 023°39'0 0.0
2015-Sep-28 12:32N 37°56' E 023°39'0 0.2
2015-Sep-28 11:33N 37°56' E 023°39'  
Track history (hours):
 
Tides and Currents Weather Stations Pressure Air Temp Water Temp Dewpoint Dewpoint Depression Visibility Wind Speed Wind Dir Waves Ship Positions

Skye

Owner: Worthington, Ralph, New York, NY. More information available from US FCC via Universal Licensing System and Coast Guard Vessel Documentation Center.

Last reported at 2015-Oct-07 18:33 UTC. Time now 2016-Feb-14 03:56 UTC.
Position N 35°54' E 014°33'.
Warning: this ship's position is months out of date.

Length 13 m.

Type: Sailing vessel. MMSI: 367533820.

Date/timePositionNaut miles runAvg speedWind from/ knotsBaromVisibWave heightAir tempDewpointWater temp
2015-Oct-07 18:33N 35°54' E 014°33'3 0.4
2015-Oct-07 12:26N 35°53' E 014°36'4 0.2
2015-Oct-06 17:03N 35°54' E 014°31'3 6.6
2015-Oct-06 16:33N 35°57' E 014°29'5 4.8
2015-Oct-06 15:33N 35°60' E 014°24'4 3.3
2015-Oct-06 14:25N 36°01' E 014°19'0 0.0
2015-Oct-06 13:31N 36°01' E 014°19'1 1.5
2015-Oct-06 12:33N 35°60' E 014°21'5 5.2
2015-Oct-06 11:33N 36°02' E 014°26'5 4.7
2015-Oct-06 10:32N 35°58' E 014°29'3 3.0
2015-Oct-06 09:28N 35°55' E 014°32'2 0.1
2015-Oct-05 00:33N 35°54' E 014°34'9 6.9
2015-Oct-04 23:19N 35°56' E 014°45'7 6.7
2015-Oct-04 22:13N 35°57' E 014°54'  
2015-Sep-30 11:21N 37°37' E 023°41'6 7.3
2015-Sep-30 10:32N 37°43' E 023°41'7 7.5
2015-Sep-30 09:32N 37°50' E 023°39'6 5.8
2015-Sep-30 08:33N 37°56' E 023°39'0 0.2
2015-Sep-30 07:31N 37°56' E 023°39'0 0.0
2015-Sep-30 06:31N 37°56' E 023°39'0 0.0
2015-Sep-30 05:31N 37°56' E 023°39'0 0.0
2015-Sep-30 04:25N 37°56' E 023°39'0 0.0
2015-Sep-30 03:31N 37°56' E 023°39'0 0.0
2015-Sep-30 02:31N 37°56' E 023°39'0 0.0
2015-Sep-30 01:13N 37°56' E 023°39'0 0.0
2015-Sep-30 00:31N 37°56' E 023°39'0 0.0
2015-Sep-29 23:22N 37°56' E 023°39'0 0.0
2015-Sep-29 22:31N 37°56' E 023°39'0 0.0
2015-Sep-29 21:19N 37°56' E 023°39'0 0.0
2015-Sep-29 20:31N 37°56' E 023°39'0 0.0
2015-Sep-29 19:31N 37°56' E 023°39'0 0.0
2015-Sep-29 18:31N 37°56' E 023°39'0 0.0
2015-Sep-29 16:28N 37°56' E 023°39'0 0.0
2015-Sep-29 15:31N 37°56' E 023°39'0 0.0
2015-Sep-29 14:16N 37°56' E 023°39'0 0.0
2015-Sep-29 13:22N 37°56' E 023°39'0 0.0
2015-Sep-29 12:22N 37°56' E 023°39'0 0.0
2015-Sep-29 11:31N 37°56' E 023°39'0 0.0
2015-Sep-29 10:31N 37°56' E 023°39'0 0.0
2015-Sep-29 09:31N 37°56' E 023°39'0 0.0
2015-Sep-29 08:31N 37°56' E 023°39'0 0.0
2015-Sep-29 07:31N 37°56' E 023°39'0 0.0
2015-Sep-29 06:31N 37°56' E 023°39'0 0.0
2015-Sep-29 05:31N 37°56' E 023°39'0 0.0
2015-Sep-29 04:25N 37°56' E 023°39'0 0.0
2015-Sep-29 03:32N 37°56' E 023°39'0 0.0
2015-Sep-29 02:31N 37°56' E 023°39'0 0.0
2015-Sep-29 01:31N 37°56' E 023°39'0 0.0
2015-Sep-29 00:32N 37°56' E 023°39'0 0.0
2015-Sep-28 23:32N 37°56' E 023°39'0 0.0
2015-Sep-28 22:32N 37°56' E 023°39'0 0.0
2015-Sep-28 21:32N 37°56' E 023°39'0 0.0
2015-Sep-28 20:32N 37°56' E 023°39'0 0.0
2015-Sep-28 19:32N 37°56' E 023°39'0 0.0
2015-Sep-28 18:26N 37°56' E 023°39'0 0.0
2015-Sep-28 17:32N 37°56' E 023°39'0 0.0
2015-Sep-28 16:32N 37°56' E 023°39'0 0.0
2015-Sep-28 15:32N 37°56' E 023°39'0 0.0
2015-Sep-28 14:32N 37°56' E 023°39'0 0.0
2015-Sep-28 13:32N 37°56' E 023°39'0 0.0
2015-Sep-28 12:32N 37°56' E 023°39'0 0.2
2015-Sep-28 11:33N 37°56' E 023°39'  

Dump ship's entire track history